Time;durP1;ratioP1;P1;durP2;ratioP2;P2;SDS_P1;SDS_P2;PMS_P1;PMS_P2;Temp;Humidity;BMP_temperature;BMP_pressure;BME280_temperature;BME280_humidity;BME280_pressure;Samples;Min_cycle;Max_cycle;Signal;HPM_P1;HPM_P2
2021/07/07 00:00:21;;;;;;;12.27;5.47;;;;;;;15.10;100.00;100755.08;1970663;72;33383;-71
2021/07/07 00:05:45;;;;;;;10.90;4.90;;;;;;;15.13;100.00;100755.84;1970493;73;33050;-73
2021/07/07 00:11:10;;;;;;;11.73;5.53;;;;;;;15.13;100.00;100759.20;1970712;73;33361;-73
2021/07/07 00:16:35;;;;;;;8.67;4.77;;;;;;;15.15;100.00;100758.30;1970525;73;32946;-72
2021/07/07 00:21:59;;;;;;;11.00;5.00;;;;;;;15.18;100.00;100755.72;1960614;71;33431;-73
2021/07/07 00:27:24;;;;;;;10.77;5.40;;;;;;;15.17;100.00;100762.45;1970539;72;33012;-73
2021/07/07 00:32:48;;;;;;;8.10;5.27;;;;;;;15.19;100.00;100751.75;1970713;73;33410;-71
2021/07/07 00:38:13;;;;;;;10.50;5.10;;;;;;;15.23;100.00;100750.56;1970379;73;32881;-71
2021/07/07 00:43:38;;;;;;;6.67;4.63;;;;;;;15.20;100.00;100750.61;1970512;73;33534;-74
2021/07/07 00:49:02;;;;;;;11.83;4.90;;;;;;;15.16;100.00;100753.80;1970256;72;32909;-73
2021/07/07 00:54:28;;;;;;;12.17;5.37;;;;;;;15.13;100.00;100748.84;1970641;73;33131;-72
2021/07/07 00:59:56;;;;;;;11.23;6.17;;;;;;;15.05;100.00;100749.61;1970743;72;32881;-73
2021/07/07 01:05:22;;;;;;;13.83;5.83;;;;;;;15.01;100.00;100753.61;1970796;72;33484;-73
2021/07/07 01:10:47;;;;;;;9.27;5.10;;;;;;;15.16;100.00;100756.59;1970679;73;33048;-73
2021/07/07 01:16:11;;;;;;;13.93;5.60;;;;;;;15.13;100.00;100753.04;1970776;72;33037;-71
2021/07/07 01:21:37;;;;;;;11.80;5.47;;;;;;;15.18;100.00;100754.88;1962541;71;32934;-72
2021/07/07 01:27:02;;;;;;;14.43;6.10;;;;;;;15.21;100.00;100760.66;1970594;72;33025;-71
2021/07/07 01:32:26;;;;;;;14.67;6.20;;;;;;;15.22;100.00;100757.30;1970651;72;33056;-73
2021/07/07 01:37:52;;;;;;;9.67;5.33;;;;;;;15.26;100.00;100760.54;1970516;73;33769;-73
2021/07/07 01:43:18;;;;;;;10.70;6.17;;;;;;;15.31;100.00;100764.61;1970492;73;33159;-73
2021/07/07 01:48:42;;;;;;;8.03;5.13;;;;;;;15.34;100.00;100770.13;1970635;73;32962;-73
2021/07/07 01:54:06;;;;;;;8.80;5.37;;;;;;;15.29;100.00;100768.86;1970444;72;32970;-73
2021/07/07 01:59:31;;;;;;;8.90;5.17;;;;;;;15.37;100.00;100770.31;1970661;73;33451;-71
2021/07/07 02:04:55;;;;;;;9.63;5.60;;;;;;;15.44;100.00;100765.69;1970260;73;32978;-73
2021/07/07 02:10:20;;;;;;;13.30;5.50;;;;;;;15.45;100.00;100769.55;1970810;72;33456;-72
2021/07/07 02:15:45;;;;;;;12.47;5.30;;;;;;;15.45;100.00;100777.11;1970721;72;33336;-71
2021/07/07 02:21:10;;;;;;;11.57;5.80;;;;;;;15.47;100.00;100765.03;1957227;72;32995;-71
2021/07/07 02:26:35;;;;;;;7.67;4.40;;;;;;;15.48;100.00;100784.32;1970869;73;33536;-73
2021/07/07 02:32:19;;;;;;;8.63;4.87;;;;;;;15.55;100.00;100785.86;1946298;73;33128;-71
2021/07/07 02:37:47;;;;;;;6.57;5.00;;;;;;;15.55;100.00;100777.45;1970664;73;33042;-71
2021/07/07 02:43:13;;;;;;;9.33;5.37;;;;;;;15.57;100.00;100781.61;1970336;72;32904;-73
2021/07/07 02:48:38;;;;;;;6.47;5.00;;;;;;;15.61;100.00;100782.62;1970585;72;33476;-71
2021/07/07 02:54:02;;;;;;;8.53;5.70;;;;;;;15.63;100.00;100787.88;1970665;73;33044;-71
2021/07/07 02:59:46;;;;;;;8.47;5.17;;;;;;;15.61;100.00;100795.22;1919937;73;33501;-71
2021/07/07 03:05:31;;;;;;;9.00;5.93;;;;;;;15.64;100.00;100802.14;1946240;74;33116;-73
2021/07/07 03:10:57;;;;;;;10.03;6.03;;;;;;;15.68;100.00;100805.95;1970870;72;32986;-71
2021/07/07 03:16:23;;;;;;;8.87;5.97;;;;;;;15.62;100.00;100812.25;1970793;72;33521;-73
2021/07/07 03:21:47;;;;;;;9.33;6.27;;;;;;;15.67;100.00;100819.69;1949630;72;32954;-71
2021/07/07 03:27:12;;;;;;;11.37;6.23;;;;;;;15.69;100.00;100820.21;1970773;72;33396;-73
2021/07/07 03:32:36;;;;;;;8.70;6.07;;;;;;;15.73;100.00;100829.63;1970527;73;32996;-75
2021/07/07 03:38:03;;;;;;;11.07;6.37;;;;;;;15.72;100.00;100832.99;1970829;72;33407;-71
2021/07/07 03:43:29;;;;;;;12.57;6.73;;;;;;;15.69;100.00;100832.81;1970514;72;33026;-73
2021/07/07 03:48:53;;;;;;;9.27;6.67;;;;;;;15.73;100.00;100838.02;1970759;72;33346;-71
2021/07/07 03:54:17;;;;;;;11.30;7.07;;;;;;;15.73;100.00;100840.83;1970502;72;33058;-71
2021/07/07 03:59:43;;;;;;;11.73;7.40;;;;;;;15.73;100.00;100845.03;1970636;72;32971;-71
2021/07/07 04:05:10;;;;;;;11.87;7.80;;;;;;;15.74;100.00;100846.13;1970447;73;32894;-73
2021/07/07 04:10:35;;;;;;;11.70;6.67;;;;;;;15.81;100.00;100852.66;1970740;73;33460;-73
2021/07/07 04:16:00;;;;;;;13.27;8.03;;;;;;;15.85;100.00;100860.09;1970487;72;32939;-73
2021/07/07 04:21:25;;;;;;;14.27;7.97;;;;;;;15.85;100.00;100859.27;1954459;72;33406;-71
2021/07/07 04:26:51;;;;;;;11.03;7.93;;;;;;;15.85;100.00;100864.88;1970443;72;32918;-71
2021/07/07 04:32:16;;;;;;;11.77;8.33;;;;;;;15.91;100.00;100870.03;1970614;72;33525;-73
2021/07/07 04:37:41;;;;;;;13.33;8.30;;;;;;;15.94;100.00;100876.39;1970595;72;33402;-71
2021/07/07 04:43:07;;;;;;;16.43;8.33;;;;;;;15.98;100.00;100876.57;1970699;73;33440;-73
2021/07/07 04:48:31;;;;;;;12.23;8.80;;;;;;;16.02;100.00;100878.98;1970717;73;33552;-71
2021/07/07 04:53:55;;;;;;;14.30;8.30;;;;;;;16.07;100.00;100890.63;1970505;72;33146;-71
2021/07/07 04:59:20;;;;;;;13.63;8.93;;;;;;;16.10;100.00;100891.37;1970677;73;33624;-73
2021/07/07 05:04:49;;;;;;;15.63;9.30;;;;;;;16.06;100.00;100902.41;1970534;73;32959;-75
2021/07/07 05:10:13;;;;;;;11.03;8.37;;;;;;;16.10;100.00;100906.22;1970696;72;33465;-71
2021/07/07 05:15:38;;;;;;;16.33;9.80;;;;;;;16.15;100.00;100908.89;1970798;72;32930;-73
2021/07/07 05:21:03;;;;;;;14.90;9.53;;;;;;;16.15;100.00;100911.70;1958583;73;32971;-72
2021/07/07 05:26:27;;;;;;;20.33;9.73;;;;;;;16.13;100.00;100918.18;1970738;72;33094;-72
2021/07/07 05:31:53;;;;;;;16.73;9.07;;;;;;;16.23;100.00;100922.69;1970555;72;33011;-72
2021/07/07 05:37:21;;;;;;;12.83;9.03;;;;;;;16.23;100.00;100920.72;1970710;72;33026;-71
2021/07/07 05:42:50;;;;;;;12.20;8.57;;;;;;;16.26;100.00;100926.25;1970307;73;33009;-71
2021/07/07 05:48:14;;;;;;;16.53;8.70;;;;;;;16.30;100.00;100927.29;1970786;72;32971;-72
2021/07/07 05:53:39;;;;;;;15.27;8.13;;;;;;;16.30;100.00;100932.89;1970640;72;30995;-74
2021/07/07 05:59:04;;;;;;;12.27;8.70;;;;;;;16.29;100.00;100936.84;1970557;72;32924;-71
2021/07/07 06:04:28;;;;;;;12.47;7.90;;;;;;;16.37;100.00;100944.47;1970795;72;33376;-74
2021/07/07 06:09:52;;;;;;;12.70;8.60;;;;;;;16.43;100.00;100947.36;1970702;73;33062;-75
2021/07/07 06:15:17;;;;;;;11.03;7.53;;;;;;;16.45;100.00;100948.45;1970258;73;33037;-75
2021/07/07 06:20:42;;;;;;;10.70;7.80;;;;;;;16.47;100.00;100954.02;1970540;73;33434;-72
2021/07/07 06:26:05;;;;;;;11.40;7.10;;;;;;;16.58;100.00;100964.39;1970411;72;32899;-73
2021/07/07 06:31:31;;;;;;;11.83;7.50;;;;;;;16.58;100.00;100960.19;1970385;73;30989;-72
2021/07/07 06:36:56;;;;;;;11.20;7.03;;;;;;;16.67;100.00;100974.51;1970351;73;32976;-72
2021/07/07 06:42:20;;;;;;;15.20;7.73;;;;;;;16.73;100.00;100984.42;1970423;73;32893;-73
2021/07/07 06:47:44;;;;;;;15.60;7.03;;;;;;;16.80;100.00;100980.59;1970487;73;33535;-75
2021/07/07 06:53:10;;;;;;;11.53;7.67;;;;;;;16.87;100.00;100989.09;1970831;72;33474;-73
2021/07/07 06:58:34;;;;;;;15.23;7.27;;;;;;;16.98;100.00;100996.09;1970598;72;31000;-72
2021/07/07 07:03:59;;;;;;;14.10;6.97;;;;;;;17.16;100.00;100985.98;1970452;73;32932;-72
2021/07/07 07:09:23;;;;;;;16.60;7.00;;;;;;;17.35;100.00;101000.31;1970527;73;33353;-73
2021/07/07 07:14:50;;;;;;;9.83;6.67;;;;;;;17.51;100.00;100996.70;1970629;73;32946;-74
2021/07/07 07:20:18;;;;;;;11.80;6.30;;;;;;;17.59;100.00;101003.52;1967981;72;30927;-72
2021/07/07 07:25:43;;;;;;;9.00;6.50;;;;;;;17.46;100.00;101011.48;1970825;72;30948;-73
2021/07/07 07:31:08;;;;;;;7.07;5.93;;;;;;;17.44;100.00;101009.02;1970440;72;31214;-75
2021/07/07 07:36:32;;;;;;;11.00;6.80;;;;;;;17.48;100.00;101017.61;1970539;72;31543;-72
2021/07/07 07:41:59;;;;;;;10.27;6.30;;;;;;;17.48;100.00;101023.22;1970661;72;33533;-74
2021/07/07 07:47:24;;;;;;;16.00;7.53;;;;;;;17.51;100.00;101029.58;1970637;72;32958;-73
2021/07/07 07:52:48;;;;;;;13.83;6.47;;;;;;;17.49;100.00;101035.55;1971071;72;33488;-75
2021/07/07 07:58:17;;;;;;;12.50;6.30;;;;;;;17.53;100.00;101034.31;1970819;73;31533;-73
2021/07/07 08:03:40;;;;;;;10.77;5.40;;;;;;;17.66;100.00;101050.23;1970666;73;31047;-73
2021/07/07 08:09:05;;;;;;;11.00;4.83;;;;;;;18.02;100.00;101047.94;1970966;72;30976;-73
2021/07/07 08:14:30;;;;;;;9.43;4.67;;;;;;;18.51;100.00;101047.99;1970708;72;31009;-74
2021/07/07 08:19:55;;;;;;;8.37;5.00;;;;;;;18.44;100.00;101046.25;1970602;73;31438;-73
2021/07/07 08:25:20;;;;;;;10.80;5.50;;;;;;;18.24;100.00;101046.94;1970595;73;31408;-73
2021/07/07 08:30:45;;;;;;;10.97;5.17;;;;;;;18.29;100.00;101058.60;1970439;72;31038;-74
2021/07/07 08:36:09;;;;;;;10.57;5.37;;;;;;;18.26;100.00;101067.71;1970765;72;33494;-75
2021/07/07 08:41:34;;;;;;;8.27;4.40;;;;;;;18.36;100.00;101058.34;1970720;72;30971;-73
2021/07/07 08:46:58;;;;;;;9.13;4.97;;;;;;;18.38;100.00;101063.64;1970670;73;31508;-75
2021/07/07 08:52:23;;;;;;;7.80;4.80;;;;;;;18.38;100.00;101067.86;1970425;72;30996;-74
2021/07/07 08:57:48;;;;;;;7.20;5.10;;;;;;;18.26;100.00;101077.55;1970827;72;31693;-76
2021/07/07 09:03:18;;;;;;;9.87;5.90;;;;;;;18.19;100.00;101081.67;1970665;73;33520;-76
2021/07/07 09:08:49;;;;;;;8.03;4.80;;;;;;;18.65;100.00;101090.05;1970596;72;31668;-75
2021/07/07 09:14:16;;;;;;;7.97;4.90;;;;;;;18.86;100.00;101086.77;1971037;72;30969;-75
2021/07/07 09:19:43;;;;;;;7.90;5.03;;;;;;;18.88;100.00;101082.19;1970568;72;31095;-72
2021/07/07 09:25:10;;;;;;;8.70;4.67;;;;;;;18.97;100.00;101085.81;1970682;72;30927;-74
2021/07/07 09:30:35;;;;;;;7.63;4.60;;;;;;;18.86;100.00;101090.16;1970650;72;30990;-74
2021/07/07 09:36:21;;;;;;;9.33;4.77;;;;;;;18.92;100.00;101090.21;1970775;73;30919;-74
2021/07/07 09:41:49;;;;;;;10.13;5.43;;;;;;;18.75;100.00;101100.94;1970612;72;31126;-75
2021/07/07 09:47:13;;;;;;;8.33;5.27;;;;;;;18.68;100.00;101113.29;1970432;73;31061;-73
2021/07/07 09:52:38;;;;;;;9.83;5.37;;;;;;;18.65;100.00;101118.98;1970510;72;31395;-74
2021/07/07 09:58:04;;;;;;;10.30;5.53;;;;;;;18.44;100.00;101126.41;1970572;73;30935;-73
2021/07/07 10:03:28;;;;;;;8.67;5.67;;;;;;;18.78;100.00;101135.47;1970645;73;31106;-73
2021/07/07 10:08:54;;;;;;;9.27;5.50;;;;;;;19.22;100.00;101138.98;1970379;73;30933;-72
2021/07/07 10:14:20;;;;;;;8.77;5.23;;;;;;;19.36;100.00;101145.23;1970494;73;30978;-73
2021/07/07 10:19:46;;;;;;;9.97;5.00;;;;;;;19.41;100.00;101135.20;1970589;73;30979;-73
2021/07/07 10:25:14;;;;;;;8.77;5.00;;;;;;;19.44;100.00;101136.78;1970814;72;31547;-74
2021/07/07 10:30:54;;;;;;;9.97;5.27;;;;;;;19.38;100.00;101152.78;1970681;72;31056;-73
2021/07/07 10:36:25;;;;;;;5.90;4.60;;;;;;;19.13;100.00;101164.92;1970902;72;31498;-74
2021/07/07 10:41:56;;;;;;;6.13;4.97;;;;;;;19.48;100.00;101164.52;1970626;73;31036;-75
2021/07/07 10:47:41;;;;;;;11.63;5.87;;;;;;;19.25;100.00;101165.91;1970688;72;31032;-75
2021/07/07 10:53:22;;;;;;;6.43;5.07;;;;;;;19.49;100.00;101162.53;1970601;72;31036;-75
2021/07/07 10:58:48;;;;;;;12.37;5.43;;;;;;;19.84;100.00;101164.61;1970732;72;30982;-76
2021/07/07 11:04:39;;;;;;;7.67;5.13;;;;;;;19.97;100.00;101174.83;1970606;72;30974;-76
2021/07/07 11:10:25;;;;;;;9.57;5.73;;;;;;;19.64;100.00;101181.69;1970613;73;31497;-75
2021/07/07 11:16:11;;;;;;;9.43;5.40;;;;;;;19.40;100.00;101195.52;1970410;73;30965;-76
2021/07/07 11:21:37;;;;;;;8.23;5.23;;;;;;;19.63;100.00;101201.20;1951896;72;31156;-75
2021/07/07 11:27:04;;;;;;;5.57;4.97;;;;;;;19.95;100.00;101208.16;1970682;73;33343;-77
2021/07/07 11:32:31;;;;;;;8.30;5.27;;;;;;;19.74;100.00;101203.88;1970632;72;31044;-76
2021/07/07 11:38:00;;;;;;;7.17;4.70;;;;;;;19.43;100.00;101214.02;1970582;73;30987;-76
2021/07/07 11:43:28;;;;;;;5.93;4.70;;;;;;;19.39;100.00;101223.44;1970577;72;30952;-75
2021/07/07 11:48:54;;;;;;;9.10;4.77;;;;;;;19.64;100.00;101220.34;1970585;72;31488;-76
2021/07/07 11:54:20;;;;;;;6.00;4.17;;;;;;;20.03;100.00;101212.92;1970653;72;30943;-76
2021/07/07 11:59:54;;;;;;;8.03;4.73;;;;;;;20.44;100.00;101213.05;1970710;72;30985;-75
2021/07/07 12:05:18;;;;;;;6.20;3.90;;;;;;;20.73;100.00;101213.56;1970446;72;33656;-76
2021/07/07 12:10:43;;;;;;;5.07;3.60;;;;;;;20.83;100.00;101199.03;1970647;72;30999;-75
2021/07/07 12:16:37;;;;;;;3.87;3.30;;;;;;;20.85;100.00;101208.55;1970811;72;31131;-75
2021/07/07 12:22:04;;;;;;;4.33;3.47;;;;;;;20.94;100.00;101214.95;1960413;71;31021;-76
2021/07/07 12:27:30;;;;;;;7.65;4.30;;;;;;;20.95;100.00;101213.79;1971079;72;31527;-76
2021/07/07 12:32:56;;;;;;;4.93;3.60;;;;;;;20.83;100.00;101224.45;1970622;73;31083;-76
2021/07/07 12:38:21;;;;;;;6.33;3.70;;;;;;;21.13;100.00;101223.78;1970987;72;31005;-76
2021/07/07 12:43:56;;;;;;;6.80;3.60;;;;;;;21.28;100.00;101235.00;1970564;72;30973;-76
2021/07/07 12:49:23;;;;;;;5.62;4.08;;;;;;;21.29;100.00;101226.77;1970597;73;31134;-76
2021/07/07 12:51:51;;;;;;;6.10;4.03;;;;;;;;;;1946222;74;24160;-75
2021/07/07 12:57:16;;;;;;;5.47;4.90;;;;;;;21.18;100.00;101227.78;1970496;72;30996;-76
2021/07/07 13:02:52;;;;;;;4.42;3.60;;;;;;;21.18;100.00;101239.09;1970536;73;31089;-76
2021/07/07 13:08:32;;;;;;;3.92;3.52;;;;;;;21.18;100.00;101240.50;1970610;73;31059;-77
2021/07/07 13:14:00;;;;;;;4.83;3.33;;;;;;;20.88;100.00;101248.22;2061144;69;31513;-75
2021/07/07 13:19:27;;;;;;;6.50;3.97;;;;;;;21.14;100.00;101248.02;1970717;73;31423;-76
2021/07/07 13:24:55;;;;;;;6.07;3.93;;;;;;;21.20;100.00;101252.88;1971016;72;31448;-77
2021/07/07 13:30:27;;;;;;;6.80;4.50;;;;;;;21.11;100.00;101252.09;1970819;73;31292;-75
2021/07/07 13:35:51;;;;;;;5.75;3.70;;;;;;;21.29;100.00;101270.58;1970651;72;30996;-76
2021/07/07 13:41:16;;;;;;;7.28;4.85;;;;;;;20.84;100.00;101278.90;1970503;72;31232;-74
2021/07/07 13:46:40;;;;;;;6.27;4.90;;;;;;;20.49;100.00;101278.34;1970353;72;30936;-74
2021/07/07 13:52:06;;;;;;;7.07;4.57;;;;;;;20.47;100.00;101279.84;1970924;72;31555;-77
2021/07/07 13:57:31;;;;;;;5.90;4.77;;;;;;;20.07;100.00;101287.22;1970634;72;31011;-75
2021/07/07 14:02:55;;;;;;;7.13;4.47;;;;;;;20.35;100.00;101280.00;1970916;72;30997;-75
2021/07/07 14:08:20;;;;;;;7.33;4.50;;;;;;;20.29;100.00;101286.12;1970726;72;31069;-75
2021/07/07 14:13:44;;;;;;;6.23;4.67;;;;;;;20.06;100.00;101301.11;1970610;72;31124;-76
2021/07/07 14:19:08;;;;;;;7.87;4.70;;;;;;;20.36;100.00;101298.59;1970721;73;31087;-75
2021/07/07 14:24:33;;;;;;;5.13;4.20;;;;;;;20.34;100.00;101294.44;1970669;73;30970;-75
2021/07/07 14:29:57;;;;;;;6.17;4.13;;;;;;;20.57;100.00;101296.38;1970605;73;31452;-75
2021/07/07 14:35:22;;;;;;;7.47;4.80;;;;;;;20.81;100.00;101298.78;1970439;72;31065;-76
2021/07/07 14:40:46;;;;;;;6.60;4.90;;;;;;;21.01;100.00;101295.70;1970718;73;30993;-76
2021/07/07 14:46:10;;;;;;;7.10;4.85;;;;;;;21.39;100.00;101291.35;1970471;72;30990;-75
2021/07/07 14:51:35;;;;;;;6.13;4.63;;;;;;;21.67;100.00;101301.44;1970537;73;30980;-76
2021/07/07 14:56:59;;;;;;;6.60;4.87;;;;;;;21.43;100.00;101298.54;1970585;72;31067;-76
2021/07/07 15:02:23;;;;;;;8.20;4.95;;;;;;;21.22;100.00;101307.85;1970970;73;31546;-77
2021/07/07 15:07:48;;;;;;;8.40;5.40;;;;;;;21.05;100.00;101315.64;1970726;72;31500;-76
2021/07/07 15:13:13;;;;;;;7.50;5.63;;;;;;;20.97;100.00;101307.45;1970405;72;30934;-75
2021/07/07 15:18:37;;;;;;;5.70;5.10;;;;;;;20.83;100.00;101309.16;1970560;73;31111;-75
2021/07/07 15:24:02;;;;;;;6.58;4.85;;;;;;;21.02;100.00;101319.14;1970598;73;31411;-75
2021/07/07 15:29:26;;;;;;;6.90;4.50;;;;;;;20.79;100.00;101320.07;1970571;72;30965;-76
2021/07/07 15:34:50;;;;;;;6.28;4.03;;;;;;;20.95;100.00;101317.45;1970513;72;31049;-75
2021/07/07 15:40:16;;;;;;;5.40;4.45;;;;;;;21.35;100.00;101313.80;1970819;73;31050;-76
2021/07/07 15:45:41;;;;;;;7.70;4.75;;;;;;;21.08;100.00;101310.70;1970593;73;31424;-75
2021/07/07 15:51:06;;;;;;;5.70;4.30;;;;;;;21.13;100.00;101329.73;1970381;73;31071;-78
2021/07/07 15:56:30;;;;;;;5.30;4.57;;;;;;;20.96;100.00;101326.18;1970346;72;31087;-74
2021/07/07 16:01:54;;;;;;;4.30;3.90;;;;;;;21.27;100.00;101334.49;1970498;73;31348;-73
2021/07/07 16:07:18;;;;;;;6.60;5.03;;;;;;;20.94;100.00;101340.63;1970482;73;30966;-73
2021/07/07 16:12:43;;;;;;;5.80;4.20;;;;;;;21.06;100.00;101343.53;1970503;72;31649;-73
2021/07/07 16:18:08;;;;;;;4.57;4.17;;;;;;;21.27;100.00;101340.73;1970363;73;31033;-73
2021/07/07 16:20:37;;;;;;;7.33;4.30;;;;;;;;;;1941231;74;24221;-75
2021/07/07 16:26:01;;;;;;;4.77;4.07;;;;;;;21.30;100.00;101345.70;1970392;72;31163;-74
2021/07/07 16:31:28;;;;;;;6.30;5.08;;;;;;;20.93;100.00;101355.09;1970779;73;31485;-74
2021/07/07 16:36:51;;;;;;;5.90;4.93;;;;;;;20.92;100.00;101340.16;1970608;72;30933;-72
2021/07/07 16:42:16;;;;;;;7.10;4.10;;;;;;;21.21;100.00;101344.95;1970717;72;31496;-73
2021/07/07 16:47:40;;;;;;;9.77;5.50;;;;;;;21.44;100.00;101346.22;1970565;73;31063;-74
2021/07/07 16:53:06;;;;;;;4.97;3.60;;;;;;;20.94;100.00;101342.63;1970703;72;30969;-73
2021/07/07 16:58:31;;;;;;;8.65;5.78;;;;;;;21.04;100.00;101343.64;1970405;73;31143;-76
2021/07/07 17:03:55;;;;;;;8.05;4.78;;;;;;;21.18;100.00;101352.72;1903191;72;30733;-76
2021/07/07 17:06:24;;;;;;;6.67;3.73;;;;;;;;;;1866117;76;27319;-77
2021/07/07 17:11:48;;;;;;;5.47;3.77;;;;;;;21.12;100.00;101356.88;1970626;72;31436;-71
2021/07/07 17:17:12;;;;;;;10.80;6.10;;;;;;;21.03;100.00;101366.83;1970847;73;31846;-76
2021/07/07 17:22:37;;;;;;;4.00;3.17;;;;;;;21.12;100.00;101380.89;1935951;74;31158;-73
2021/07/07 17:28:07;;;;;;;2.70;2.47;;;;;;;20.94;100.00;101372.28;1970591;73;31198;-78
2021/07/07 17:33:31;;;;;;;5.73;3.03;;;;;;;20.65;100.00;101363.25;1972102;72;31012;-76
2021/07/07 17:38:56;;;;;;;3.03;2.77;;;;;;;20.65;100.00;101371.14;1970505;72;31058;-77
2021/07/07 17:44:20;;;;;;;3.70;2.77;;;;;;;20.50;100.00;101375.10;1970616;73;31725;-73
2021/07/07 17:49:45;;;;;;;6.27;3.67;;;;;;;20.56;100.00;101375.16;1970720;73;30925;-72
2021/07/07 17:55:12;;;;;;;4.67;3.50;;;;;;;20.32;100.00;101387.88;1970809;72;31079;-72
2021/07/07 18:00:37;;;;;;;6.30;3.90;;;;;;;20.28;100.00;101397.35;1970358;73;31026;-78
2021/07/07 18:06:03;;;;;;;8.07;4.63;;;;;;;20.48;100.00;101404.27;1970471;72;31076;-79
2021/07/07 18:11:27;;;;;;;4.20;2.77;;;;;;;20.45;100.00;101410.02;1970752;72;31137;-72
2021/07/07 18:16:53;;;;;;;4.00;2.70;;;;;;;20.24;100.00;101425.96;1970522;72;31003;-72
2021/07/07 18:22:18;;;;;;;4.77;2.77;;;;;;;19.94;100.00;101428.69;1943511;73;30977;-79
2021/07/07 18:27:43;;;;;;;3.00;2.40;;;;;;;20.12;100.00;101438.53;1970864;72;31523;-79
2021/07/07 18:33:09;;;;;;;4.23;2.90;;;;;;;19.90;100.00;101450.84;1970871;72;33353;-71
2021/07/07 18:38:34;;;;;;;5.70;2.80;;;;;;;19.79;100.00;101461.64;1970829;72;31388;-79
2021/07/07 18:43:58;;;;;;;3.70;3.00;;;;;;;19.72;100.00;101473.17;1970603;72;30981;-74
2021/07/07 18:49:23;;;;;;;4.97;2.90;;;;;;;19.55;100.00;101470.58;1970692;72;30972;-75
2021/07/07 18:54:47;;;;;;;4.43;2.80;;;;;;;19.48;100.00;101477.87;1970524;73;31002;-76
2021/07/07 19:00:15;;;;;;;5.33;2.70;;;;;;;19.35;100.00;101477.41;1970660;72;31050;-74
2021/07/07 19:05:41;;;;;;;4.27;2.47;;;;;;;19.12;100.00;101480.95;1970759;72;30943;-73
2021/07/07 19:11:07;;;;;;;2.57;2.37;;;;;;;19.11;100.00;101493.36;1970658;73;30941;-75
2021/07/07 19:16:32;;;;;;;5.70;3.10;;;;;;;18.99;100.00;101504.42;1970588;73;33514;-75
2021/07/07 19:21:56;;;;;;;4.10;2.73;;;;;;;18.80;100.00;101506.08;1970510;72;30968;-72
2021/07/07 19:27:21;;;;;;;4.20;3.60;;;;;;;18.68;100.00;101512.06;1970479;73;31042;-76
2021/07/07 19:32:46;;;;;;;7.13;4.10;;;;;;;18.64;100.00;101514.70;1970733;72;30938;-78
2021/07/07 19:38:11;;;;;;;5.07;4.40;;;;;;;18.50;100.00;101517.57;1970643;73;32172;-79
2021/07/07 19:43:56;;;;;;;5.10;4.43;;;;;;;18.33;100.00;101518.88;1925187;73;33039;-77
2021/07/07 19:49:20;;;;;;;6.17;4.23;;;;;;;18.30;100.00;101527.12;1970817;72;30998;-77
2021/07/07 19:55:05;;;;;;;4.50;4.10;;;;;;;18.22;100.00;101537.17;1946116;74;31052;-72
2021/07/07 20:00:32;;;;;;;4.80;4.30;;;;;;;18.13;100.00;101532.89;1970616;72;30947;-76
2021/07/07 20:06:16;;;;;;;4.53;3.77;;;;;;;18.06;100.00;101534.46;1944262;74;33693;-74
2021/07/07 20:11:40;;;;;;;5.97;4.07;;;;;;;17.86;100.00;101554.64;1970523;72;31035;-74
2021/07/07 20:17:24;;;;;;;6.23;4.00;;;;;;;17.72;100.00;101556.08;1946347;73;31074;-75
2021/07/07 20:22:54;;;;;;;5.77;4.13;;;;;;;17.73;100.00;101568.98;1970435;73;30943;-74
2021/07/07 20:28:19;;;;;;;5.83;3.97;;;;;;;17.61;100.00;101581.35;1970835;72;30991;-71
2021/07/07 20:34:03;;;;;;;6.93;3.90;;;;;;;17.54;100.00;101592.97;1946003;74;31173;-72
2021/07/07 20:39:27;;;;;;;4.80;3.80;;;;;;;17.42;100.00;101597.45;1970504;72;31101;-75
2021/07/07 20:44:51;;;;;;;6.70;5.00;;;;;;;17.42;100.00;101612.90;1970414;72;32876;-74
2021/07/07 20:50:16;;;;;;;6.27;4.73;;;;;;;17.24;100.00;101617.50;1971000;72;33397;-72
2021/07/07 20:55:41;;;;;;;6.50;5.30;;;;;;;17.23;100.00;101623.69;1970541;73;31073;-71
2021/07/07 21:01:05;;;;;;;7.07;5.03;;;;;;;17.10;100.00;101630.69;1970899;72;31739;-73
2021/07/07 21:06:30;;;;;;;6.03;4.77;;;;;;;17.11;100.00;101643.02;1970489;72;30974;-75
2021/07/07 21:11:54;;;;;;;5.83;4.73;;;;;;;16.84;100.00;101649.41;1970536;73;33344;-75
2021/07/07 21:17:19;;;;;;;6.47;5.63;;;;;;;16.85;100.00;101655.86;1970592;73;33422;-75
2021/07/07 21:22:44;;;;;;;8.43;6.27;;;;;;;16.88;100.00;101655.80;1935617;74;31018;-72
2021/07/07 21:28:11;;;;;;;6.33;5.73;;;;;;;16.80;100.00;101651.73;1970531;72;32994;-75
2021/07/07 21:33:37;;;;;;;9.53;7.47;;;;;;;16.68;100.00;101657.84;1970394;72;32871;-75
2021/07/07 21:39:02;;;;;;;11.13;6.80;;;;;;;16.60;100.00;101660.50;1970437;72;30968;-72
2021/07/07 21:44:27;;;;;;;8.53;6.63;;;;;;;16.45;100.00;101661.54;1970620;72;33430;-72
2021/07/07 21:49:52;;;;;;;7.67;6.90;;;;;;;16.38;100.00;101665.31;1970534;72;32970;-78
2021/07/07 21:55:17;;;;;;;7.30;5.97;;;;;;;16.48;100.00;101659.52;1970558;73;31072;-76
2021/07/07 22:00:47;;;;;;;8.00;7.20;;;;;;;16.44;100.00;101665.48;1970330;73;32862;-73
2021/07/07 22:06:12;;;;;;;8.20;7.23;;;;;;;16.53;100.00;101671.23;1970750;72;33447;-74
2021/07/07 22:11:36;;;;;;;8.90;8.00;;;;;;;16.47;100.00;101670.50;1970940;72;31087;-74
2021/07/07 22:16:52;;;;;;;9.10;8.30;;;;;;;16.27;100.00;101673.03;1975637;72;32811;-74
2021/07/07 22:19:22;;;;;;;10.83;8.27;;;;;;;16.32;100.00;101674.92;1879881;76;26204;-74
2021/07/07 22:21:53;;;;;;;9.60;8.23;;;;;;;16.32;100.00;101674.92;1924997;73;26357;-74
2021/07/07 22:24:23;;;;;;;9.33;8.40;;;;;;;16.25;100.00;101685.70;1916722;75;26611;-74
2021/07/07 22:26:53;;;;;;;9.47;8.57;;;;;;;16.23;100.00;101690.20;1916591;75;26231;-73
2021/07/07 22:29:23;;;;;;;10.13;8.40;;;;;;;16.23;100.00;101690.20;1916764;75;24656;-74
2021/07/07 22:31:53;;;;;;;10.00;8.23;;;;;;;16.16;100.00;101686.95;1916700;75;26248;-78
2021/07/07 22:34:23;;;;;;;10.53;9.40;;;;;;;16.18;100.00;101692.23;1916942;75;26179;-78
2021/07/07 22:39:48;;;;;;;9.00;8.17;;;;;;;16.17;100.00;101691.39;1970758;72;33059;-78
2021/07/07 22:45:13;;;;;;;9.20;8.37;;;;;;;16.16;100.00;101700.96;1970637;72;32987;-74
2021/07/07 22:51:00;;;;;;;10.27;8.80;;;;;;;16.13;100.00;101699.34;1946638;74;32952;-74
2021/07/07 22:56:25;;;;;;;10.07;9.07;;;;;;;16.18;100.00;101699.23;1970538;72;33030;-74
2021/07/07 23:01:49;;;;;;;10.03;8.70;;;;;;;15.99;100.00;101701.20;1970871;73;32907;-78
2021/07/07 23:07:13;;;;;;;9.97;8.90;;;;;;;15.98;100.00;101700.93;1970794;73;33489;-78
2021/07/07 23:12:38;;;;;;;12.77;9.07;;;;;;;15.86;100.00;101716.22;1970626;73;33430;-78
2021/07/07 23:18:23;;;;;;;10.43;8.70;;;;;;;15.93;100.00;101709.67;1938008;73;31486;-74
2021/07/07 23:23:48;;;;;;;10.03;9.03;;;;;;;16.05;100.00;101719.03;1970561;73;30997;-76
2021/07/07 23:29:32;;;;;;;9.63;8.67;;;;;;;16.02;100.00;101722.45;1946470;74;31026;-74
2021/07/07 23:34:58;;;;;;;9.80;8.33;;;;;;;16.04;100.00;101726.36;1970647;73;31061;-76
2021/07/07 23:40:25;;;;;;;9.90;9.00;;;;;;;16.02;100.00;101730.02;1970630;72;33106;-78
2021/07/07 23:45:50;;;;;;;9.40;8.30;;;;;;;15.90;100.00;101734.66;1970869;73;31631;-78
2021/07/07 23:51:14;;;;;;;9.23;8.23;;;;;;;15.99;100.00;101742.67;1970494;73;32965;-78
2021/07/07 23:56:38;;;;;;;8.53;7.63;;;;;;;15.98;100.00;101748.01;1970404;72;33009;-74
